Time;durP1;ratioP1;P1;durP2;ratioP2;P2;SDS_P1;SDS_P2;PMS_P1;PMS_P2;Temp;Humidity;BMP_temperature;BMP_pressure;BME280_temperature;BME280_humidity;BME280_pressure;Samples;Min_cycle;Max_cycle;Signal;HPM_P1;HPM_P2
2021/05/04 00:02:30;;;;;;;0.9;0.9;;;;;;;;;;;;;
2021/05/04 00:04:55;;;;;;;1.5;0.7;;;;;;;;;;;;;
2021/05/04 00:07:20;;;;;;;0.6;0.5;;;;;;;;;;;;;
2021/05/04 00:09:45;;;;;;;0.6;0.6;;;;;;;;;;;;;
2021/05/04 00:12:11;;;;;;;1.1;1;;;;;;;;;;;;;
2021/05/04 00:14:38;;;;;;;0.6;0.6;;;;;;;;;;;;;
2021/05/04 00:17:02;;;;;;;1.4;0.9;;;;;;;;;;;;;
2021/05/04 00:19:28;;;;;;;1.3;0.8;;;;;;;;;;;;;
2021/05/04 00:21:53;;;;;;;0.8;0.6;;;;;;;;;;;;;
2021/05/04 00:24:18;;;;;;;1.4;1;;;;;;;;;;;;;
2021/05/04 00:26:44;;;;;;;1.7;0.6;;;;;;;;;;;;;
2021/05/04 00:29:09;;;;;;;0.5;0.5;;;;;;;;;;;;;
2021/05/04 00:31:35;;;;;;;1.2;0.6;;;;;;;;;;;;;
2021/05/04 00:34:00;;;;;;;0.9;0.8;;;;;;;;;;;;;
2021/05/04 00:36:25;;;;;;;0.9;0.8;;;;;;;;;;;;;
2021/05/04 00:38:51;;;;;;;2.1;1.2;;;;;;;;;;;;;
2021/05/04 00:41:27;;;;;;;3.8;1;;;;;;;;;;;;;
2021/05/04 00:43:53;;;;;;;1.1;1;;;;;;;;;;;;;
2021/05/04 00:46:18;;;;;;;1.2;0.9;;;;;;;;;;;;;
2021/05/04 00:48:43;;;;;;;0.6;0.6;;;;;;;;;;;;;
2021/05/04 00:51:08;;;;;;;1.9;1.1;;;;;;;;;;;;;
2021/05/04 00:53:33;;;;;;;2.5;1.1;;;;;;;;;;;;;
2021/05/04 00:55:59;;;;;;;2.9;1;;;;;;;;;;;;;
2021/05/04 00:58:24;;;;;;;1.1;0.9;;;;;;;;;;;;;
2021/05/04 01:00:49;;;;;;;1.2;0.8;;;;;;;;;;;;;
2021/05/04 01:03:16;;;;;;;1.3;1;;;;;;;;;;;;;
2021/05/04 01:05:41;;;;;;;1.3;1;;;;;;;;;;;;;
2021/05/04 01:08:06;;;;;;;0.8;0.7;;;;;;;;;;;;;
2021/05/04 01:10:31;;;;;;;1.6;1;;;;;;;;;;;;;
2021/05/04 01:12:57;;;;;;;0.8;0.8;;;;;;;;;;;;;
2021/05/04 01:15:22;;;;;;;2.5;1.3;;;;;;;;;;;;;
2021/05/04 01:17:49;;;;;;;2.1;0.8;;;;;;;;;;;;;
2021/05/04 01:20:14;;;;;;;1.1;0.8;;;;;;;;;;;;;
2021/05/04 01:22:40;;;;;;;1.2;0.9;;;;;;;;;;;;;
2021/05/04 01:25:05;;;;;;;2.2;0.8;;;;;;;;;;;;;
2021/05/04 01:27:31;;;;;;;0.7;0.7;;;;;;;;;;;;;
2021/05/04 01:29:56;;;;;;;1;0.8;;;;;;;;;;;;;
2021/05/04 01:32:21;;;;;;;0.9;0.7;;;;;;;;;;;;;
2021/05/04 01:34:46;;;;;;;0.8;0.6;;;;;;;;;;;;;
2021/05/04 01:37:13;;;;;;;2.7;0.8;;;;;;;;;;;;;
2021/05/04 01:39:44;;;;;;;1.2;0.9;;;;;;;;;;;;;
2021/05/04 01:42:09;;;;;;;1;0.9;;;;;;;;;;;;;
2021/05/04 01:44:34;;;;;;;1;0.8;;;;;;;;;;;;;
2021/05/04 01:47:00;;;;;;;0.6;0.6;;;;;;;;;;;;;
2021/05/04 01:49:25;;;;;;;0.9;0.8;;;;;;;;;;;;;
2021/05/04 01:51:52;;;;;;;0.8;0.8;;;;;;;;;;;;;
2021/05/04 01:54:16;;;;;;;1.4;0.9;;;;;;;;;;;;;
2021/05/04 01:56:42;;;;;;;1.3;1;;;;;;;;;;;;;
2021/05/04 01:59:07;;;;;;;1.4;0.9;;;;;;;;;;;;;
2021/05/04 02:01:33;;;;;;;1.4;0.9;;;;;;;;;;;;;
2021/05/04 02:03:58;;;;;;;1.2;0.8;;;;;;;;;;;;;
2021/05/04 02:06:25;;;;;;;1.6;0.8;;;;;;;;;;;;;
2021/05/04 02:08:50;;;;;;;2.7;1;;;;;;;;;;;;;
2021/05/04 02:11:16;;;;;;;1.2;0.8;;;;;;;;;;;;;
2021/05/04 02:13:40;;;;;;;1.9;0.7;;;;;;;;;;;;;
2021/05/04 02:16:07;;;;;;;1.1;0.6;;;;;;;;;;;;;
2021/05/04 02:18:32;;;;;;;2;0.9;;;;;;;;;;;;;
2021/05/04 02:20:58;;;;;;;1;0.9;;;;;;;;;;;;;
2021/05/04 02:23:23;;;;;;;1.6;1;;;;;;;;;;;;;
2021/05/04 02:25:50;;;;;;;0.9;0.8;;;;;;;;;;;;;
2021/05/04 02:28:13;;;;;;;1.3;1;;;;;;;;;;;;;
2021/05/04 02:30:40;;;;;;;1;0.9;;;;;;;;;;;;;
2021/05/04 02:33:05;;;;;;;1;0.9;;;;;;;;;;;;;
2021/05/04 02:35:31;;;;;;;0.9;0.8;;;;;;;;;;;;;
2021/05/04 02:37:56;;;;;;;1.7;1.1;;;;;;;;;;;;;
2021/05/04 02:40:22;;;;;;;2.8;1.2;;;;;;;;;;;;;
2021/05/04 02:42:47;;;;;;;1;0.9;;;;;;;;;;;;;
2021/05/04 02:45:14;;;;;;;3.3;0.8;;;;;;;;;;;;;
2021/05/04 02:47:39;;;;;;;2;0.6;;;;;;;;;;;;;
2021/05/04 02:50:05;;;;;;;1.7;1.3;;;;;;;;;;;;;
2021/05/04 02:52:30;;;;;;;0.9;0.7;;;;;;;;;;;;;
2021/05/04 02:55:10;;;;;;;1.4;1.1;;;;;;;;;;;;;
2021/05/04 02:57:26;;;;;;;1;0.9;;;;;;;;;;;;;
2021/05/04 02:59:51;;;;;;;1.6;1.1;;;;;;;;;;;;;
2021/05/04 03:02:16;;;;;;;2.1;1;;;;;;;;;;;;;
2021/05/04 03:04:41;;;;;;;0.9;0.9;;;;;;;;;;;;;
2021/05/04 03:07:07;;;;;;;0.9;0.7;;;;;;;;;;;;;
2021/05/04 03:09:32;;;;;;;1.4;0.9;;;;;;;;;;;;;
2021/05/04 03:11:58;;;;;;;1.7;1;;;;;;;;;;;;;
2021/05/04 03:14:24;;;;;;;1.3;1.1;;;;;;;;;;;;;
2021/05/04 03:16:49;;;;;;;0.8;0.8;;;;;;;;;;;;;
2021/05/04 03:19:15;;;;;;;1.8;1;;;;;;;;;;;;;
2021/05/04 03:21:40;;;;;;;1.2;1.1;;;;;;;;;;;;;
2021/05/04 03:24:06;;;;;;;1.1;0.8;;;;;;;;;;;;;
2021/05/04 03:26:31;;;;;;;0.9;0.8;;;;;;;;;;;;;
2021/05/04 03:28:56;;;;;;;3.4;1.1;;;;;;;;;;;;;
2021/05/04 03:31:22;;;;;;;1.6;1.1;;;;;;;;;;;;;
2021/05/04 03:33:47;;;;;;;1.4;1.1;;;;;;;;;;;;;
2021/05/04 03:36:14;;;;;;;1.6;1;;;;;;;;;;;;;
2021/05/04 03:38:39;;;;;;;2.6;0.9;;;;;;;;;;;;;
2021/05/04 03:41:05;;;;;;;1.1;0.8;;;;;;;;;;;;;
2021/05/04 03:43:30;;;;;;;1.4;1;;;;;;;;;;;;;
2021/05/04 03:45:56;;;;;;;1.3;1;;;;;;;;;;;;;
2021/05/04 03:48:22;;;;;;;5.5;1.1;;;;;;;;;;;;;
2021/05/04 03:50:48;;;;;;;0.8;0.8;;;;;;;;;;;;;
2021/05/04 03:53:12;;;;;;;1.8;0.8;;;;;;;;;;;;;
2021/05/04 03:55:41;;;;;;;2.8;1.2;;;;;;;;;;;;;
2021/05/04 03:58:07;;;;;;;2;0.6;;;;;;;;;;;;;
2021/05/04 04:02:30;;;;;;;1.4;1;;;;;;;2.55;82.46875;934.9766;;;;
2021/05/04 04:04:56;;;;;;;1.2;1.1;;;;;;;2.56;82.18164;934.8999;;;;
2021/05/04 04:07:21;;;;;;;12.3;1.4;;;;;;;2.64;81.70215;934.8621;;;;
2021/05/04 04:09:48;;;;;;;1.2;0.9;;;;;;;2.67;81.75195;934.8702;;;;
2021/05/04 04:12:13;;;;;;;4.8;1.2;;;;;;;2.7;81.30078;934.8979;;;;
2021/05/04 04:14:41;;;;;;;1.6;1;;;;;;;2.65;81.25488;934.8159;;;;
2021/05/04 04:17:06;;;;;;;5.4;1.4;;;;;;;2.79;80.85645;934.8308;;;;
2021/05/04 04:19:34;;;;;;;0.8;0.8;;;;;;;2.79;80.8125;934.7932;;;;
2021/05/04 04:21:59;;;;;;;1.1;1;;;;;;;2.74;80.79199;934.8569;;;;
2021/05/04 04:24:25;;;;;;;0.9;0.8;;;;;;;2.85;80.70996;934.8551;;;;
2021/05/04 04:26:51;;;;;;;0.5;0.5;;;;;;;2.97;80.27441;934.885;;;;
2021/05/04 04:29:17;;;;;;;1.5;1.1;;;;;;;2.98;79.89648;934.9035;;;;
2021/05/04 04:31:42;;;;;;;1.7;1.3;;;;;;;3.03;79.62402;934.8903;;;;
2021/05/04 04:34:08;;;;;;;1.1;0.9;;;;;;;2.97;79.67969;934.9179;;;;
2021/05/04 04:36:34;;;;;;;1.5;1.4;;;;;;;2.83;80.34961;934.9096;;;;
2021/05/04 04:39:02;;;;;;;3.1;1.5;;;;;;;2.98;80.0625;934.8679;;;;
2021/05/04 04:41:26;;;;;;;4.5;1.2;;;;;;;2.94;80.12305;934.8769;;;;
2021/05/04 04:43:52;;;;;;;3.3;1.5;;;;;;;3;80.1582;934.7834;;;;
2021/05/04 04:46:18;;;;;;;3.5;2.4;;;;;;;3.13;80.04492;934.8422;;;;
2021/05/04 04:48:45;;;;;;;1.9;1.5;;;;;;;3.1;79.38965;934.9003;;;;
2021/05/04 04:51:10;;;;;;;2.2;1.4;;;;;;;3.08;79.39844;934.8134;;;;
2021/05/04 04:53:35;;;;;;;2.4;1.4;;;;;;;3.07;79.45117;934.8601;;;;
2021/05/04 04:56:00;;;;;;;1.3;1;;;;;;;2.95;79.75293;934.6744;;;;
2021/05/04 04:58:27;;;;;;;1.4;1;;;;;;;3.09;79.68066;934.7869;;;;
2021/05/04 05:00:53;;;;;;;1.3;1.1;;;;;;;2.97;80.00488;934.7058;;;;
2021/05/04 05:03:20;;;;;;;2.9;1.6;;;;;;;3.03;79.90625;934.7072;;;;
2021/05/04 05:05:45;;;;;;;2.3;1.3;;;;;;;3.05;79.72852;934.7477;;;;
2021/05/04 05:08:12;;;;;;;1.3;1.1;;;;;;;3.17;79.38184;934.7399;;;;
2021/05/04 05:10:37;;;;;;;2.5;1.7;;;;;;;3.28;78.96484;934.7121;;;;
2021/05/04 05:13:04;;;;;;;1.4;0.9;;;;;;;3.4;78.99707;934.7181;;;;
2021/05/04 05:15:36;;;;;;;1.9;1.3;;;;;;;3.58;78.75;934.7614;;;;
2021/05/04 05:17:55;;;;;;;2.3;1.3;;;;;;;3.63;77.47754;934.6907;;;;
2021/05/04 05:20:25;;;;;;;9.9;1.2;;;;;;;3.7;77.2207;934.603;;;;
2021/05/04 05:22:55;;;;;;;1.7;1.4;;;;;;;4.29;77.09277;934.562;;;;
2021/05/04 05:25:24;;;;;;;2.1;0.7;;;;;;;6.19;71.29883;934.4982;;;;
2021/05/04 05:27:49;;;;;;;2.2;1.2;;;;;;;8.14;64.0957;934.5266;;;;
2021/05/04 05:30:17;;;;;;;1.9;1;;;;;;;9.36;58.01465;934.4392;;;;
2021/05/04 05:32:42;;;;;;;1.3;1;;;;;;;10.37;54.32715;934.3631;;;;
2021/05/04 05:35:09;;;;;;;4.6;1.3;;;;;;;10.37;53.5166;934.3576;;;;
2021/05/04 05:37:34;;;;;;;1.9;1.1;;;;;;;11.54;50.74219;934.3674;;;;
2021/05/04 05:40:00;;;;;;;1.2;0.7;;;;;;;12.03;48.12012;934.2672;;;;
2021/05/04 05:42:25;;;;;;;1.4;0.7;;;;;;;12.74;47.6123;934.2556;;;;
2021/05/04 05:44:52;;;;;;;0.7;0.5;;;;;;;12.54;46.17969;934.2012;;;;
2021/05/04 05:50:41;;;;;;;2;0.4;;;;;;;15.41;41.07031;934.1261;;;;
2021/05/04 05:53:07;;;;;;;2.4;0.5;;;;;;;16.17;38.49219;934.1337;;;;
2021/05/04 05:55:32;;;;;;;0.3;0.2;;;;;;;16.95;38.29492;934.1259;;;;
2021/05/04 05:57:58;;;;;;;1.2;0.6;;;;;;;17.81;36.74414;934.0492;;;;
2021/05/04 06:00:23;;;;;;;0.3;0.3;;;;;;;17.34;35.5332;934.0822;;;;
2021/05/04 06:02:50;;;;;;;0.4;0.4;;;;;;;15.5;37.45215;934.0527;;;;
2021/05/04 06:06:27;;;;;;;0.8;0.4;;;;;;;16.51;37.88574;933.975;;;;
2021/05/04 06:08:52;;;;;;;0.8;0.5;;;;;;;15.81;37.15527;933.8697;;;;
2021/05/04 06:11:17;;;;;;;1;0.5;;;;;;;16.18;36.67773;933.9109;;;;
2021/05/04 06:13:44;;;;;;;0.3;0.3;;;;;;;16.59;36.0293;933.8406;;;;
2021/05/04 06:16:08;;;;;;;0.7;0.5;;;;;;;16.91;36.37891;933.8445;;;;
2021/05/04 06:18:36;;;;;;;4.1;1.2;;;;;;;17.56;34.3916;933.8142;;;;
2021/05/04 06:21:01;;;;;;;1;0.6;;;;;;;18.2;34.3252;933.765;;;;
2021/05/04 06:23:26;;;;;;;0.5;0.3;;;;;;;18.36;33.12891;933.73;;;;
2021/05/04 06:25:51;;;;;;;0.5;0.3;;;;;;;18.34;32.92969;933.6864;;;;
2021/05/04 06:28:18;;;;;;;0.5;0.4;;;;;;;18.66;34.46582;933.687;;;;
2021/05/04 06:30:42;;;;;;;0.4;0.4;;;;;;;19.22;31.7959;933.6289;;;;
2021/05/04 06:33:09;;;;;;;0.3;0.3;;;;;;;19.15;30.92871;933.5309;;;;
2021/05/04 06:35:36;;;;;;;0.4;0.2;;;;;;;20.02;28.99512;933.4944;;;;
2021/05/04 06:37:59;;;;;;;0.5;0.3;;;;;;;19.01;31.1875;933.5236;;;;
2021/05/04 06:40:24;;;;;;;0.2;0.2;;;;;;;20.64;31.62988;933.4611;;;;
2021/05/04 06:42:50;;;;;;;1.2;0.4;;;;;;;21.19;31.24707;933.4384;;;;
2021/05/04 06:45:17;;;;;;;0.4;0.4;;;;;;;22.53;29.59375;933.3577;;;;
2021/05/04 06:47:42;;;;;;;1;0.4;;;;;;;22.73;29.26563;933.3588;;;;
2021/05/04 06:50:10;;;;;;;1.9;0.7;;;;;;;22.33;29.22852;933.3067;;;;
2021/05/04 06:52:35;;;;;;;0.2;0.2;;;;;;;23.61;26.7002;933.2119;;;;
2021/05/04 06:55:02;;;;;;;0.2;0.2;;;;;;;23.06;26.90332;933.1714;;;;
2021/05/04 06:57:27;;;;;;;0.4;0.3;;;;;;;23.22;26.49023;933.1948;;;;
2021/05/04 06:59:52;;;;;;;1.2;0.5;;;;;;;23.56;24.38184;933.1699;;;;
2021/05/04 07:02:18;;;;;;;0.1;0.1;;;;;;;22.44;25.15234;933.0875;;;;
2021/05/04 07:04:43;;;;;;;0.2;0.2;;;;;;;22.55;25.44043;933.0328;;;;
2021/05/04 07:07:10;;;;;;;0.2;0.2;;;;;;;22.69;28.40723;933.0633;;;;
2021/05/04 07:09:35;;;;;;;0.4;0.3;;;;;;;23.22;26.73633;933.1036;;;;
2021/05/04 07:12:04;;;;;;;0.1;0.1;;;;;;;23.12;27.05957;933.0589;;;;
2021/05/04 07:14:27;;;;;;;1.6;0.4;;;;;;;23.17;26.0293;933.0644;;;;
2021/05/04 07:16:55;;;;;;;0.4;0.3;;;;;;;21.38;28.51074;933.0095;;;;
2021/05/04 07:19:21;;;;;;;0.6;0.4;;;;;;;20.73;29.83594;932.9951;;;;
2021/05/04 07:21:46;;;;;;;0.4;0.4;;;;;;;21.15;32.12207;932.8864;;;;
2021/05/04 07:24:11;;;;;;;1.7;0.6;;;;;;;21.58;29.89355;932.907;;;;
2021/05/04 07:26:43;;;;;;;0.7;0.4;;;;;;;22.12;29.15625;932.8787;;;;
2021/05/04 07:29:08;;;;;;;5.9;0.5;;;;;;;22.15;29.49805;932.8499;;;;
2021/05/04 07:31:34;;;;;;;0.3;0.2;;;;;;;23.12;28.25781;932.8475;;;;
2021/05/04 07:34:00;;;;;;;0.3;0.3;;;;;;;24.44;26.79785;932.7416;;;;
2021/05/04 07:36:26;;;;;;;1.2;0.3;;;;;;;24.77;25.3916;932.707;;;;
2021/05/04 07:38:51;;;;;;;2.2;0.2;;;;;;;24.7;27.02539;932.7192;;;;
2021/05/04 07:41:16;;;;;;;0.3;0.2;;;;;;;24.16;26.13379;932.6691;;;;
2021/05/04 07:43:42;;;;;;;0.6;0.3;;;;;;;24.58;26.44043;932.6871;;;;
2021/05/04 07:46:07;;;;;;;0.2;0.2;;;;;;;24.1;24.09277;932.6219;;;;
2021/05/04 07:48:33;;;;;;;0.3;0.3;;;;;;;24.46;24.19434;932.6057;;;;
2021/05/04 07:50:58;;;;;;;0.6;0.5;;;;;;;24.21;26.07813;932.519;;;;
2021/05/04 07:53:28;;;;;;;0.4;0.3;;;;;;;24.63;26.05469;932.5625;;;;
2021/05/04 07:55:56;;;;;;;0.3;0.2;;;;;;;25.03;24.32031;932.5535;;;;
2021/05/04 07:58:22;;;;;;;0.4;0.3;;;;;;;24.41;27.96289;932.5115;;;;
2021/05/04 08:00:48;;;;;;;1.6;0.5;;;;;;;25.35;26.74707;932.5187;;;;
2021/05/04 08:03:14;;;;;;;2.1;0.4;;;;;;;25.3;27.12109;932.4956;;;;
2021/05/04 08:05:40;;;;;;;0.9;0.5;;;;;;;25.51;24.8418;932.405;;;;
2021/05/04 08:08:05;;;;;;;0.9;0.3;;;;;;;25.61;25.72266;932.3747;;;;
2021/05/04 08:10:35;;;;;;;0.3;0.3;;;;;;;26.06;24.84863;932.4437;;;;
2021/05/04 08:12:59;;;;;;;0.3;0.3;;;;;;;26.34;24.40332;932.3956;;;;
2021/05/04 08:15:34;;;;;;;2.2;0.5;;;;;;;26.7;23.41602;932.364;;;;
2021/05/04 08:18:01;;;;;;;0.4;0.4;;;;;;;26.56;23.84668;932.2837;;;;
2021/05/04 08:20:28;;;;;;;2.2;0.7;;;;;;;27.07;23.15137;932.2941;;;;
2021/05/04 08:22:49;;;;;;;0.3;0.2;;;;;;;27.63;21.15039;932.2629;;;;
2021/05/04 08:25:15;;;;;;;0.2;0.2;;;;;;;28.57;20.81445;932.1829;;;;
2021/05/04 08:27:40;;;;;;;1;0.6;;;;;;;28.35;22.46777;932.1195;;;;
2021/05/04 08:30:08;;;;;;;0.3;0.2;;;;;;;28.86;20.74414;932.1174;;;;
2021/05/04 08:32:33;;;;;;;0.7;0.4;;;;;;;29.67;18.34863;932.0203;;;;
2021/05/04 08:34:58;;;;;;;0.2;0.2;;;;;;;29.82;20.15625;932.0352;;;;
2021/05/04 08:37:23;;;;;;;0.4;0.3;;;;;;;30.01;20.25977;932.0045;;;;
2021/05/04 08:39:48;;;;;;;0.3;0.2;;;;;;;29.16;20.15039;931.9658;;;;
2021/05/04 08:42:14;;;;;;;1;0.3;;;;;;;29.53;20.45313;931.9482;;;;
2021/05/04 08:44:39;;;;;;;0.2;0.2;;;;;;;30.26;18.94629;931.8951;;;;
2021/05/04 08:47:05;;;;;;;0.2;0.2;;;;;;;29.32;20.32422;931.8394;;;;
2021/05/04 08:49:30;;;;;;;13.4;0.9;;;;;;;29.16;21.54395;931.832;;;;
2021/05/04 08:51:56;;;;;;;0.6;0.5;;;;;;;30.28;19.37598;931.8184;;;;
2021/05/04 08:54:21;;;;;;;0.2;0.2;;;;;;;31.05;18.5127;931.785;;;;
2021/05/04 08:56:48;;;;;;;0.3;0.3;;;;;;;32.21;17.00098;931.8331;;;;
2021/05/04 08:59:13;;;;;;;0.8;0.2;;;;;;;31.47;17.97949;931.8105;;;;
2021/05/04 09:01:39;;;;;;;1.1;0.3;;;;;;;32.4;16.3125;931.762;;;;
2021/05/04 09:04:07;;;;;;;0.4;0.2;;;;;;;31.37;17.2207;931.7369;;;;
2021/05/04 09:06:29;;;;;;;0.1;0.1;;;;;;;31.6;18.06836;931.7403;;;;
2021/05/04 09:09:12;;;;;;;0.2;0.2;;;;;;;32.02;17.04199;931.7508;;;;
2021/05/04 09:11:41;;;;;;;0.1;0.1;;;;;;;31.51;17.47754;931.7952;;;;
2021/05/04 09:14:03;;;;;;;1.3;0.1;;;;;;;29.94;18.2168;931.7205;;;;
2021/05/04 09:16:31;;;;;;;0.6;0.2;;;;;;;28.44;19.70215;931.6555;;;;
2021/05/04 09:19:15;;;;;;;0.1;0.1;;;;;;;27.98;21.58203;931.635;;;;
2021/05/04 09:21:13;;;;;;;7.3;1.1;;;;;;;26.77;21.61914;931.6422;;;;
2021/05/04 09:23:40;;;;;;;0.2;0.2;;;;;;;26.06;22.0459;931.5765;;;;
2021/05/04 09:26:05;;;;;;;1.3;0.4;;;;;;;24.39;25.62891;931.5639;;;;
2021/05/04 09:28:30;;;;;;;0.2;0.2;;;;;;;24.79;24.54297;931.5057;;;;
2021/05/04 09:30:56;;;;;;;0.4;0.3;;;;;;;24.76;26.33398;931.528;;;;
2021/05/04 09:33:24;;;;;;;0.2;0.2;;;;;;;24.62;24.49805;931.4122;;;;
2021/05/04 09:35:49;;;;;;;1.2;0.5;;;;;;;23.77;26.92188;931.3555;;;;
2021/05/04 09:38:15;;;;;;;3.4;0.5;;;;;;;23.04;25.98535;931.3723;;;;
2021/05/04 09:40:41;;;;;;;1.8;0.4;;;;;;;23;26.5;931.3739;;;;
2021/05/04 09:43:05;;;;;;;0.4;0.3;;;;;;;23.05;26.06836;931.4053;;;;
2021/05/04 09:45:30;;;;;;;0.2;0.2;;;;;;;22.96;26.09863;931.3585;;;;
2021/05/04 09:47:58;;;;;;;0.1;0.1;;;;;;;22.76;25.72266;931.3674;;;;
2021/05/04 09:50:22;;;;;;;0.2;0.2;;;;;;;23.29;26.11816;931.3441;;;;
2021/05/04 09:52:50;;;;;;;0.1;0.1;;;;;;;23.57;25.38086;931.2728;;;;
2021/05/04 09:55:15;;;;;;;0.7;0.3;;;;;;;22.78;26.70996;931.2555;;;;
2021/05/04 09:57:39;;;;;;;0.3;0.2;;;;;;;22.26;28.17969;931.1662;;;;
2021/05/04 10:00:07;;;;;;;1.7;0.2;;;;;;;22.4;27.8252;931.2195;;;;
2021/05/04 10:02:43;;;;;;;1.1;0.3;;;;;;;22.23;29.11621;931.1213;;;;
2021/05/04 10:05:08;;;;;;;0.6;0.3;;;;;;;21.76;27.82031;931.1428;;;;
2021/05/04 10:07:33;;;;;;;0.2;0.2;;;;;;;22.41;29.13965;931.1696;;;;
2021/05/04 10:09:58;;;;;;;0.2;0.2;;;;;;;23.24;28.37207;931.0605;;;;
2021/05/04 10:12:23;;;;;;;0.7;0.4;;;;;;;22.66;27.33691;931.0729;;;;
2021/05/04 10:14:50;;;;;;;1.1;0.3;;;;;;;22.51;27.63281;931.0433;;;;
2021/05/04 10:17:16;;;;;;;0.2;0.2;;;;;;;22.63;27.86328;930.9582;;;;
2021/05/04 10:19:40;;;;;;;0.3;0.3;;;;;;;22.53;27.71582;930.929;;;;
2021/05/04 10:22:06;;;;;;;0.1;0.1;;;;;;;21.97;28.43164;930.9508;;;;
2021/05/04 10:24:32;;;;;;;0.1;0.1;;;;;;;21.54;29.03613;930.8813;;;;
2021/05/04 10:26:58;;;;;;;0.4;0.3;;;;;;;21.09;29.94238;930.7698;;;;
2021/05/04 10:29:22;;;;;;;0.2;0.1;;;;;;;21.06;29.08594;930.827;;;;
2021/05/04 10:31:49;;;;;;;0.1;0.1;;;;;;;20.99;28.92871;930.6769;;;;
2021/05/04 10:34:14;;;;;;;0.6;0.5;;;;;;;20.82;29.94727;930.7508;;;;
2021/05/04 10:36:39;;;;;;;1;0.3;;;;;;;21.11;31.31152;930.6815;;;;
2021/05/04 10:39:06;;;;;;;1.1;0.3;;;;;;;21;29.66699;930.6376;;;;
2021/05/04 10:41:31;;;;;;;0.5;0.3;;;;;;;21.27;28.16406;930.6322;;;;
2021/05/04 10:43:58;;;;;;;0.4;0.2;;;;;;;21.67;29.1377;930.6189;;;;
2021/05/04 10:46:23;;;;;;;0.1;0.1;;;;;;;21.4;29.78809;930.6328;;;;
2021/05/04 10:48:49;;;;;;;0.6;0.3;;;;;;;21.75;27.56152;930.5358;;;;
2021/05/04 10:51:14;;;;;;;0.4;0.2;;;;;;;21.9;27.8291;930.5156;;;;
2021/05/04 10:53:38;;;;;;;0.6;0.1;;;;;;;22.53;27.03613;930.4614;;;;
2021/05/04 10:56:04;;;;;;;0.1;0.1;;;;;;;22.94;26.62598;930.3965;;;;
2021/05/04 10:58:30;;;;;;;0.2;0.2;;;;;;;22.89;28.71289;930.3867;;;;
2021/05/04 11:00:56;;;;;;;0.4;0.3;;;;;;;22.56;28.32813;930.3335;;;;
2021/05/04 11:03:22;;;;;;;0.1;0.1;;;;;;;22.15;29.81445;930.2921;;;;
2021/05/04 11:05:48;;;;;;;0.2;0.2;;;;;;;21.67;30.19238;930.2786;;;;
2021/05/04 11:08:13;;;;;;;0.1;0.1;;;;;;;22.3;27.49023;930.2972;;;;
2021/05/04 11:10:38;;;;;;;0.1;0.1;;;;;;;22.76;28.08301;930.2935;;;;
2021/05/04 11:13:04;;;;;;;0.2;0.2;;;;;;;23.18;27.2627;930.2569;;;;
2021/05/04 11:15:34;;;;;;;0.1;0.1;;;;;;;22.69;27.59668;930.1812;;;;
2021/05/04 11:17:58;;;;;;;0.7;0.5;;;;;;;22.59;28.42383;930.0958;;;;
2021/05/04 11:20:23;;;;;;;0.2;0.2;;;;;;;22.87;26.39746;930.1355;;;;
2021/05/04 11:22:48;;;;;;;0.1;0.1;;;;;;;23.02;27.27637;930.0961;;;;
2021/05/04 11:25:13;;;;;;;0.1;0.1;;;;;;;22.97;26.70996;929.9847;;;;
2021/05/04 11:27:39;;;;;;;0.1;0.1;;;;;;;22.93;26.13184;929.9956;;;;
2021/05/04 11:30:04;;;;;;;0.2;0.2;;;;;;;23.11;26.24805;930.0069;;;;
2021/05/04 11:32:29;;;;;;;0.2;0.2;;;;;;;23.3;28.52832;930.0525;;;;
2021/05/04 11:34:54;;;;;;;0;0;;;;;;;23.22;26.6543;929.9458;;;;
2021/05/04 11:37:19;;;;;;;0.4;0.4;;;;;;;22.73;28.22168;929.9811;;;;
2021/05/04 11:39:46;;;;;;;0.2;0.2;;;;;;;22.82;28.2041;930.0125;;;;
2021/05/04 11:42:11;;;;;;;0.2;0.2;;;;;;;22.42;28.68262;929.8353;;;;
2021/05/04 11:44:36;;;;;;;0.7;0.3;;;;;;;22.58;30.5127;929.9041;;;;
2021/05/04 11:47:01;;;;;;;0.2;0.2;;;;;;;22.7;28.34961;929.8956;;;;
2021/05/04 11:49:28;;;;;;;0.4;0.2;;;;;;;23.32;27.6709;929.8876;;;;
2021/05/04 11:51:52;;;;;;;0.5;0.4;;;;;;;23.65;27.2334;929.8513;;;;
2021/05/04 11:54:19;;;;;;;0.7;0.4;;;;;;;23.5;26.31836;929.8389;;;;
2021/05/04 11:56:44;;;;;;;0.3;0.3;;;;;;;23.58;26.3584;929.8164;;;;
2021/05/04 11:59:10;;;;;;;0.1;0.1;;;;;;;23.62;25.85547;929.8172;;;;
2021/05/04 12:01:35;;;;;;;0.1;0.1;;;;;;;23.81;25.48926;929.7294;;;;
2021/05/04 12:04:03;;;;;;;0.3;0.1;;;;;;;23.34;28.06055;929.7294;;;;
2021/05/04 12:06:28;;;;;;;0.5;0.3;;;;;;;22.65;28.28711;929.6888;;;;
2021/05/04 12:08:53;;;;;;;0.4;0.3;;;;;;;22.48;29.86035;929.663;;;;
2021/05/04 12:11:20;;;;;;;0.5;0.3;;;;;;;22.39;28.62207;929.682;;;;
2021/05/04 12:13:45;;;;;;;2.3;0.2;;;;;;;22.45;28.27441;929.606;;;;
2021/05/04 12:16:10;;;;;;;0.1;0.1;;;;;;;22.08;29.69238;929.6238;;;;
2021/05/04 12:18:37;;;;;;;0.8;0.4;;;;;;;21.98;30.08496;929.6069;;;;
2021/05/04 12:21:04;;;;;;;0.3;0.2;;;;;;;22.15;30.31836;929.584;;;;
2021/05/04 12:23:29;;;;;;;0.4;0.3;;;;;;;21.71;29.49219;929.6032;;;;
2021/05/04 12:25:57;;;;;;;0.1;0.1;;;;;;;22.08;29.10645;929.6394;;;;
2021/05/04 12:28:21;;;;;;;1.2;0.4;;;;;;;22.41;29.66797;929.5503;;;;
2021/05/04 12:30:47;;;;;;;0.8;0.5;;;;;;;22.52;29.28809;929.4989;;;;
2021/05/04 12:33:11;;;;;;;0.2;0.2;;;;;;;22.48;28.6748;929.4319;;;;
2021/05/04 12:35:39;;;;;;;1.4;0.5;;;;;;;22.27;28.62695;929.4219;;;;
2021/05/04 12:38:02;;;;;;;0.2;0.2;;;;;;;22.09;29.4248;929.3094;;;;
2021/05/04 12:40:29;;;;;;;0.8;0.2;;;;;;;22.33;29.41602;929.2828;;;;
2021/05/04 12:42:54;;;;;;;0.2;0.1;;;;;;;22.35;30.49707;929.3658;;;;
2021/05/04 12:45:19;;;;;;;0.3;0.3;;;;;;;22.46;30.50391;929.3095;;;;
2021/05/04 12:47:44;;;;;;;5.7;0.3;;;;;;;22.64;31.02148;929.2745;;;;
2021/05/04 12:50:09;;;;;;;1.5;0.5;;;;;;;22.69;28.14844;929.264;;;;
2021/05/04 12:52:38;;;;;;;0.7;0.3;;;;;;;22.2;30.28711;929.2151;;;;
2021/05/04 12:55:00;;;;;;;0.3;0.3;;;;;;;22.01;29.40625;929.2092;;;;
2021/05/04 12:57:26;;;;;;;1.8;0.4;;;;;;;21.98;30.1543;929.1498;;;;
2021/05/04 12:59:52;;;;;;;0.2;0.2;;;;;;;21.73;30.87598;929.1739;;;;
2021/05/04 13:02:16;;;;;;;0.4;0.4;;;;;;;21.61;31.89746;929.1859;;;;
2021/05/04 13:04:43;;;;;;;1.3;0.4;;;;;;;21.4;32.5498;929.1858;;;;
2021/05/04 13:07:09;;;;;;;1.1;0.5;;;;;;;21.08;31.26367;929.1114;;;;
2021/05/04 13:09:44;;;;;;;0.1;0.1;;;;;;;20.85;31.49219;929.1412;;;;
2021/05/04 13:14:28;;;;;;;0;0;;;;;;;20.77;31.80273;929.0172;;;;
2021/05/04 13:17:23;;;;;;;0.5;0.4;;;;;;;20.71;31.31934;929.0467;;;;
2021/05/04 13:28:13;;;;;;;0.6;0.4;;;;;;;20.72;32.46484;929.0812;;;;
2021/05/04 13:29:00;;;;;;;1.2;0.3;;;;;;;20.35;32.56641;928.9911;;;;
2021/05/04 13:31:18;;;;;;;0.6;0.5;;;;;;;20.5;32.77637;928.9803;;;;
2021/05/04 13:33:44;;;;;;;0.3;0.3;;;;;;;20.52;35.7207;928.9408;;;;
2021/05/04 13:36:10;;;;;;;0.2;0.2;;;;;;;20.31;33.10059;928.9589;;;;
2021/05/04 13:38:43;;;;;;;0.4;0.4;;;;;;;20.39;33.41016;928.9175;;;;
2021/05/04 13:48:26;;;;;;;0.3;0.3;;;;;;;19.73;33.65137;928.7665;;;;
2021/05/04 13:50:57;;;;;;;0.3;0.3;;;;;;;19.73;35.15527;928.7933;;;;
2021/05/04 13:53:22;;;;;;;0.3;0.3;;;;;;;20.06;33.2334;928.7759;;;;
2021/05/04 13:55:47;;;;;;;0.6;0.3;;;;;;;20.4;35.43164;928.6833;;;;
2021/05/04 13:58:15;;;;;;;16.5;4.5;;;;;;;20.41;33.75;928.6679;;;;
2021/05/04 14:00:55;;;;;;;0.5;0.3;;;;;;;20.23;33.67773;928.6825;;;;
2021/05/04 14:03:12;;;;;;;0.2;0.2;;;;;;;20.12;35.30273;928.6113;;;;
2021/05/04 14:05:45;;;;;;;0.6;0.3;;;;;;;20.15;34.37305;928.5474;;;;
2021/05/04 14:08:40;;;;;;;1.9;0.6;;;;;;;19.99;33.6709;928.5;;;;
2021/05/04 14:16:25;;;;;;;0.3;0.3;;;;;;;20.02;36.94043;928.3912;;;;
2021/05/04 14:25:18;;;;;;;0.1;0.1;;;;;;;19.6;34.42285;928.2894;;;;
2021/05/04 14:27:15;;;;;;;0.9;0.5;;;;;;;19.43;34.92285;928.2653;;;;
2021/05/04 14:29:40;;;;;;;0.3;0.3;;;;;;;19.34;36.49902;928.3198;;;;
2021/05/04 14:32:05;;;;;;;0.5;0.3;;;;;;;19.41;35.74707;928.3008;;;;
2021/05/04 14:34:33;;;;;;;0.5;0.4;;;;;;;19.33;36.09082;928.1973;;;;
2021/05/04 14:37:02;;;;;;;3.1;0.6;;;;;;;19.44;36.44922;928.2166;;;;
2021/05/04 14:39:30;;;;;;;0.4;0.3;;;;;;;18.98;35.70117;928.1663;;;;
2021/05/04 14:42:29;;;;;;;0.3;0.3;;;;;;;18.96;36.75977;928.1177;;;;
2021/05/04 14:44:38;;;;;;;0.1;0.1;;;;;;;18.77;36.40527;928.1216;;;;
2021/05/04 14:46:58;;;;;;;2;0.4;;;;;;;18.67;37.08398;928.1569;;;;
2021/05/04 14:56:34;;;;;;;0.6;0.6;;;;;;;17.89;39.82813;928.1;;;;
2021/05/04 14:58:54;;;;;;;0.4;0.3;;;;;;;18.01;39.10742;928.0925;;;;
2021/05/04 15:01:17;;;;;;;1.1;0.5;;;;;;;18.19;36.99805;928.0943;;;;
2021/05/04 15:03:34;;;;;;;0.3;0.2;;;;;;;18.28;37.78223;927.9925;;;;
2021/05/04 15:05:59;;;;;;;1.3;0.5;;;;;;;18.17;37.27441;928.0098;;;;
2021/05/04 15:08:24;;;;;;;0.1;0.1;;;;;;;18.19;37.70703;928.0073;;;;
2021/05/04 15:10:49;;;;;;;1.6;0.4;;;;;;;18.24;38.11621;927.9978;;;;
2021/05/04 15:13:17;;;;;;;0.3;0.3;;;;;;;18.33;37.72949;927.9598;;;;
2021/05/04 15:15:49;;;;;;;0.6;0.4;;;;;;;18.21;38.56738;927.8028;;;;
2021/05/04 15:18:10;;;;;;;0.2;0.2;;;;;;;18.19;37.68262;927.856;;;;
2021/05/04 15:22:56;;;;;;;0.5;0.3;;;;;;;18.2;37.25293;927.9436;;;;
2021/05/04 15:25:21;;;;;;;0.5;0.4;;;;;;;18.17;38.12207;927.9106;;;;
2021/05/04 15:27:47;;;;;;;0.3;0.3;;;;;;;17.95;37.83594;927.8095;;;;
2021/05/04 15:30:13;;;;;;;0.3;0.3;;;;;;;17.92;37.87988;927.8244;;;;
2021/05/04 15:32:45;;;;;;;1.8;0.5;;;;;;;18.07;38.45117;927.8041;;;;
2021/05/04 15:35:05;;;;;;;3.4;0.8;;;;;;;18.08;37.91602;927.8656;;;;
2021/05/04 15:37:29;;;;;;;0.5;0.3;;;;;;;18.13;38.06055;927.8911;;;;
2021/05/04 15:39:57;;;;;;;1.4;0.6;;;;;;;18.03;37.95801;927.928;;;;
2021/05/04 15:42:20;;;;;;;0.4;0.4;;;;;;;17.91;38.2627;927.8586;;;;
2021/05/04 15:44:45;;;;;;;0.7;0.4;;;;;;;17.73;38.79199;927.8436;;;;
2021/05/04 15:47:19;;;;;;;0.6;0.5;;;;;;;17.59;39.83594;927.822;;;;
2021/05/04 15:49:38;;;;;;;10.9;0.7;;;;;;;17.7;39.04492;927.8558;;;;
2021/05/04 15:52:22;;;;;;;1.1;0.5;;;;;;;17.81;38.62402;927.8522;;;;
2021/05/04 15:54:59;;;;;;;0.3;0.3;;;;;;;17.56;38.78906;927.872;;;;
2021/05/04 16:02:31;;;;;;;0.3;0.3;;;;;;;17.82;38.66113;927.7994;;;;
2021/05/04 16:06:35;;;;;;;1.6;0.7;;;;;;;17.93;38.57813;927.7101;;;;
2021/05/04 16:08:59;;;;;;;0.5;0.4;;;;;;;17.98;38.69727;927.769;;;;
2021/05/04 16:11:23;;;;;;;1.2;0.4;;;;;;;17.96;38.38281;927.7883;;;;
2021/05/04 16:13:50;;;;;;;0.5;0.5;;;;;;;17.89;38.27246;927.7938;;;;
2021/05/04 16:16:16;;;;;;;0.8;0.7;;;;;;;17.87;38.29297;927.7584;;;;
2021/05/04 16:18:41;;;;;;;1;0.5;;;;;;;17.8;38.39258;927.7912;;;;
2021/05/04 16:21:17;;;;;;;6.8;0.8;;;;;;;17.81;38.69531;927.777;;;;
2021/05/04 16:23:37;;;;;;;1.2;0.5;;;;;;;17.82;38.70703;927.7817;;;;